sensor_id;sensor_type;location;lat;lon;timestamp;pressure;altitude;pressure_sealevel;temperature;humidity
58311;BME280;45001;52.218;5.154;2022-09-20T00:01:03;102294.94;;;17.36;59.33
58311;BME280;45001;52.218;5.154;2022-09-20T00:03:28;102291.38;;;17.35;59.22
58311;BME280;45001;52.218;5.154;2022-09-20T00:05:53;102293.22;;;17.35;59.24
58311;BME280;45001;52.218;5.154;2022-09-20T00:08:19;102288.84;;;17.34;59.25
58311;BME280;45001;52.218;5.154;2022-09-20T00:10:44;102293.22;;;17.35;59.21
58311;BME280;45001;52.218;5.154;2022-09-20T00:13:11;102291.53;;;17.34;59.19
58311;BME280;45001;52.218;5.154;2022-09-20T00:15:44;102285.28;;;17.33;59.32
58311;BME280;45001;52.218;5.154;2022-09-20T00:18:11;102296.94;;;17.34;59.15
58311;BME280;45001;52.218;5.154;2022-09-20T00:20:44;102294.41;;;17.32;59.07
58311;BME280;45001;52.218;5.154;2022-09-20T00:23:09;102292.53;;;17.33;59.33
58311;BME280;45001;52.218;5.154;2022-09-20T00:25:34;102295.22;;;17.33;59.01
58311;BME280;45001;52.218;5.154;2022-09-20T00:28:00;102289.00;;;17.32;59.07
58311;BME280;45001;52.218;5.154;2022-09-20T00:30:25;102289.00;;;17.32;59.19
58311;BME280;45001;52.218;5.154;2022-09-20T00:32:51;102289.16;;;17.31;59.14
58311;BME280;45001;52.218;5.154;2022-09-20T00:35:16;102292.69;;;17.31;59.11
58311;BME280;45001;52.218;5.154;2022-09-20T00:37:42;102291.03;;;17.30;59.38
58311;BME280;45001;52.218;5.154;2022-09-20T00:40:12;102290.19;;;17.30;59.15
58311;BME280;45001;52.218;5.154;2022-09-20T00:42:37;102293.88;;;17.29;59.08
58311;BME280;45001;52.218;5.154;2022-09-20T00:45:04;102290.19;;;17.30;59.11
58311;BME280;45001;52.218;5.154;2022-09-20T00:47:40;102293.72;;;17.30;59.09
58311;BME280;45001;52.218;5.154;2022-09-20T00:52:32;102293.03;;;17.28;59.09
58311;BME280;45001;52.218;5.154;2022-09-20T00:54:59;102296.56;;;17.29;59.34
58311;BME280;45001;52.218;5.154;2022-09-20T00:57:25;102296.56;;;17.29;59.44
58311;BME280;45001;52.218;5.154;2022-09-20T00:59:51;102292.16;;;17.28;59.31
58311;BME280;45001;52.218;5.154;2022-09-20T01:02:22;102295.72;;;17.28;59.08
58311;BME280;45001;52.218;5.154;2022-09-20T01:04:50;102289.47;;;17.28;59.16
58311;BME280;45001;52.218;5.154;2022-09-20T01:07:17;102288.78;;;17.25;59.11
58311;BME280;45001;52.218;5.154;2022-09-20T01:09:46;102290.50;;;17.27;59.26
58311;BME280;45001;52.218;5.154;2022-09-20T01:12:14;102295.88;;;17.27;59.25
58311;BME280;45001;52.218;5.154;2022-09-20T01:14:43;102287.78;;;17.27;59.09
58311;BME280;45001;52.218;5.154;2022-09-20T01:17:10;102291.47;;;17.25;59.13
58311;BME280;45001;52.218;5.154;2022-09-20T01:19:59;102287.94;;;17.25;59.10
58311;BME280;45001;52.218;5.154;2022-09-20T01:30:13;102286.28;;;17.24;59.25
58311;BME280;45001;52.218;5.154;2022-09-20T01:35:31;102282.56;;;17.25;59.15
58311;BME280;45001;52.218;5.154;2022-09-20T01:46:37;102288.97;;;17.24;59.05
58311;BME280;45001;52.218;5.154;2022-09-20T01:52:06;102294.50;;;17.22;59.03
58311;BME280;45001;52.218;5.154;2022-09-20T01:55:03;102290.94;;;17.22;59.10
58311;BME280;45001;52.218;5.154;2022-09-20T02:00:28;102282.03;;;17.21;59.34
58311;BME280;45001;52.218;5.154;2022-09-20T02:03:25;102285.56;;;17.22;59.31
58311;BME280;45001;52.218;5.154;2022-09-20T02:09:05;102285.06;;;17.18;59.38
58311;BME280;45001;52.218;5.154;2022-09-20T02:14:57;102278.66;;;17.19;59.22
58311;BME280;45001;52.218;5.154;2022-09-20T02:20:31;102280.50;;;17.19;59.07
58311;BME280;45001;52.218;5.154;2022-09-20T02:23:15;102285.06;;;17.18;59.05
58311;BME280;45001;52.218;5.154;2022-09-20T02:26:08;102288.44;;;17.20;59.24
58311;BME280;45001;52.218;5.154;2022-09-20T02:29:14;102276.97;;;17.18;59.29
58311;BME280;45001;52.218;5.154;2022-09-20T02:34:28;102285.22;;;17.17;59.07
58311;BME280;45001;52.218;5.154;2022-09-20T02:37:29;102279.97;;;17.15;58.99
58311;BME280;45001;52.218;5.154;2022-09-20T02:48:28;102281.84;;;17.15;59.21
58311;BME280;45001;52.218;5.154;2022-09-20T02:51:07;102281.84;;;17.15;59.09
58311;BME280;45001;52.218;5.154;2022-09-20T02:56:41;102292.63;;;17.15;58.96
58311;BME280;45001;52.218;5.154;2022-09-20T03:02:05;102291.75;;;17.14;59.13
58311;BME280;45001;52.218;5.154;2022-09-20T03:13:16;102281.31;;;17.11;59.18
58311;BME280;45001;52.218;5.154;2022-09-20T03:24:02;102290.38;;;17.10;59.09
58311;BME280;45001;52.218;5.154;2022-09-20T03:26:46;102290.38;;;17.10;58.93
58311;BME280;45001;52.218;5.154;2022-09-20T03:29:33;102286.00;;;17.09;59.03
58311;BME280;45001;52.218;5.154;2022-09-20T03:40:25;102283.31;;;17.09;59.18
58311;BME280;45001;52.218;5.154;2022-09-20T03:43:04;102286.00;;;17.09;59.25
58311;BME280;45001;52.218;5.154;2022-09-20T03:48:34;102293.38;;;17.07;59.18
58311;BME280;45001;52.218;5.154;2022-09-20T03:51:27;102287.00;;;17.08;59.19
58311;BME280;45001;52.218;5.154;2022-09-20T04:08:16;102289.00;;;17.06;59.04
58311;BME280;45001;52.218;5.154;2022-09-20T04:11:05;102295.25;;;17.07;59.25
58311;BME280;45001;52.218;5.154;2022-09-20T04:13:49;102295.25;;;17.07;59.12
58311;BME280;45001;52.218;5.154;2022-09-20T04:16:57;102290.88;;;17.05;58.94
58311;BME280;45001;52.218;5.154;2022-09-20T04:19:28;102289.00;;;17.06;59.00
58311;BME280;45001;52.218;5.154;2022-09-20T04:21:57;102288.34;;;17.04;59.12
58311;BME280;45001;52.218;5.154;2022-09-20T04:24:34;102291.88;;;17.04;58.99
58311;BME280;45001;52.218;5.154;2022-09-20T04:30:15;102296.41;;;17.04;59.22
58311;BME280;45001;52.218;5.154;2022-09-20T04:38:11;102300.09;;;17.03;59.23
58311;BME280;45001;52.218;5.154;2022-09-20T04:43:36;102308.19;;;17.03;59.06
58311;BME280;45001;52.218;5.154;2022-09-20T04:46:44;102300.25;;;17.01;59.00
58311;BME280;45001;52.218;5.154;2022-09-20T04:52:20;102302.09;;;17.01;59.03
58311;BME280;45001;52.218;5.154;2022-09-20T05:00:19;102308.66;;;16.98;58.91
58311;BME280;45001;52.218;5.154;2022-09-20T05:11:30;102317.59;;;16.99;59.21
58311;BME280;45001;52.218;5.154;2022-09-20T05:14:21;102307.81;;;16.98;59.19
58311;BME280;45001;52.218;5.154;2022-09-20T05:26:10;102322.97;;;16.99;58.80
58311;BME280;45001;52.218;5.154;2022-09-20T05:28:56;102321.47;;;16.96;59.15
58311;BME280;45001;52.218;5.154;2022-09-20T05:31:29;102320.59;;;16.96;58.96
58311;BME280;45001;52.218;5.154;2022-09-20T05:37:07;102319.75;;;16.95;59.12
58311;BME280;45001;52.218;5.154;2022-09-20T05:39:46;102322.44;;;16.95;58.72
58311;BME280;45001;52.218;5.154;2022-09-20T05:42:30;102317.22;;;16.94;58.88
58311;BME280;45001;52.218;5.154;2022-09-20T05:45:20;102328.84;;;16.94;58.78
58311;BME280;45001;52.218;5.154;2022-09-20T05:48:11;102327.16;;;16.93;59.12
58311;BME280;45001;52.218;5.154;2022-09-20T05:50:51;102332.38;;;16.95;58.82
58311;BME280;45001;52.218;5.154;2022-09-20T05:53:41;102331.69;;;16.93;58.72
58311;BME280;45001;52.218;5.154;2022-09-20T05:56:20;102337.91;;;16.93;59.01
58311;BME280;45001;52.218;5.154;2022-09-20T05:59:05;102334.25;;;16.94;59.05
58311;BME280;45001;52.218;5.154;2022-09-20T06:05:03;102344.16;;;16.94;59.07
58311;BME280;45001;52.218;5.154;2022-09-20T06:10:38;102353.09;;;16.94;59.08
58311;BME280;45001;52.218;5.154;2022-09-20T06:13:34;102355.94;;;16.93;58.85
58311;BME280;45001;52.218;5.154;2022-09-20T06:16:04;102363.16;;;16.92;58.99
58311;BME280;45001;52.218;5.154;2022-09-20T06:18:37;102367.56;;;16.93;58.97
58311;BME280;45001;52.218;5.154;2022-09-20T06:21:22;102364.88;;;16.93;58.85
58311;BME280;45001;52.218;5.154;2022-09-20T06:24:00;102370.25;;;16.93;59.00
58311;BME280;45001;52.218;5.154;2022-09-20T06:26:30;102375.63;;;16.93;59.30
58311;BME280;45001;52.218;5.154;2022-09-20T06:29:05;102370.94;;;16.95;58.80
58311;BME280;45001;52.218;5.154;2022-09-20T06:31:35;102370.09;;;16.95;59.21
58311;BME280;45001;52.218;5.154;2022-09-20T06:34:07;102373.63;;;16.95;58.80
58311;BME280;45001;52.218;5.154;2022-09-20T06:36:37;102374.81;;;16.93;59.02
58311;BME280;45001;52.218;5.154;2022-09-20T06:39:32;102360.31;;;16.94;58.74
58311;BME280;45001;52.218;5.154;2022-09-20T06:42:27;102371.31;;;17.18;58.77
58311;BME280;45001;52.218;5.154;2022-09-20T06:44:54;102367.53;;;17.90;57.02
58311;BME280;45001;52.218;5.154;2022-09-20T06:47:19;102365.00;;;18.31;56.13
58311;BME280;45001;52.218;5.154;2022-09-20T06:49:47;102363.84;;;18.58;55.96
58311;BME280;45001;52.218;5.154;2022-09-20T06:52:18;102357.28;;;18.60;56.03
58311;BME280;45001;52.218;5.154;2022-09-20T06:54:49;102357.13;;;18.62;56.48
58311;BME280;45001;52.218;5.154;2022-09-20T06:57:27;102357.78;;;18.72;56.58
58311;BME280;45001;52.218;5.154;2022-09-20T06:59:55;102354.09;;;18.73;56.55
58311;BME280;45001;52.218;5.154;2022-09-20T07:02:20;102359.13;;;18.76;56.80
58311;BME280;45001;52.218;5.154;2022-09-20T07:04:46;102357.63;;;18.74;57.11
58311;BME280;45001;52.218;5.154;2022-09-20T07:07:14;102359.34;;;18.75;57.30
58311;BME280;45001;52.218;5.154;2022-09-20T07:09:40;102353.63;;;18.86;57.38
58311;BME280;45001;52.218;5.154;2022-09-20T07:12:05;102362.56;;;18.95;57.30
58311;BME280;45001;52.218;5.154;2022-09-20T07:14:36;102365.94;;;18.97;57.22
58311;BME280;45001;52.218;5.154;2022-09-20T07:17:01;102376.25;;;19.02;57.44
58311;BME280;45001;52.218;5.154;2022-09-20T07:19:27;102381.13;;;19.06;57.50
58311;BME280;45001;52.218;5.154;2022-09-20T07:21:52;102398.38;;;19.30;56.50
58311;BME280;45001;52.218;5.154;2022-09-20T07:24:18;102399.53;;;19.44;56.67
58311;BME280;45001;52.218;5.154;2022-09-20T07:26:54;102401.19;;;19.53;56.79
58311;BME280;45001;52.218;5.154;2022-09-20T07:29:20;102391.88;;;19.64;56.69
58311;BME280;45001;52.218;5.154;2022-09-20T07:31:47;102395.91;;;19.68;56.81
58311;BME280;45001;52.218;5.154;2022-09-20T07:34:15;102403.03;;;19.69;56.76
58311;BME280;45001;52.218;5.154;2022-09-20T07:36:44;102398.28;;;19.71;57.01
58311;BME280;45001;52.218;5.154;2022-09-20T07:39:09;102396.94;;;19.75;56.86
58311;BME280;45001;52.218;5.154;2022-09-20T07:41:34;102389.50;;;19.77;56.96
58311;BME280;45001;52.218;5.154;2022-09-20T07:43:59;102389.66;;;19.84;56.88
58311;BME280;45001;52.218;5.154;2022-09-20T07:46:47;102396.56;;;19.86;57.18
58311;BME280;45001;52.218;5.154;2022-09-20T07:49:12;102402.84;;;19.87;57.16
58311;BME280;45001;52.218;5.154;2022-09-20T07:51:37;102396.41;;;19.88;57.36
58311;BME280;45001;52.218;5.154;2022-09-20T07:54:03;102397.91;;;19.90;57.36
58311;BME280;45001;52.218;5.154;2022-09-20T07:56:28;102404.84;;;19.93;57.43
58311;BME280;45001;52.218;5.154;2022-09-20T07:58:53;102413.84;;;19.85;57.80
58311;BME280;45001;52.218;5.154;2022-09-20T08:01:19;102420.78;;;19.71;58.10
58311;BME280;45001;52.218;5.154;2022-09-20T08:03:46;102422.97;;;19.68;58.33
58311;BME280;45001;52.218;5.154;2022-09-20T08:06:12;102430.44;;;19.66;58.38
58311;BME280;45001;52.218;5.154;2022-09-20T08:08:39;102431.13;;;19.60;58.89
58311;BME280;45001;52.218;5.154;2022-09-20T08:11:05;102440.59;;;19.64;58.89
58311;BME280;45001;52.218;5.154;2022-09-20T08:13:43;102441.91;;;19.68;58.78
58311;BME280;45001;52.218;5.154;2022-09-20T08:16:10;102449.88;;;19.69;58.68
58311;BME280;45001;52.218;5.154;2022-09-20T08:18:37;102443.28;;;19.80;58.81
58311;BME280;45001;52.218;5.154;2022-09-20T08:21:09;102446.34;;;19.85;58.51
58311;BME280;45001;52.218;5.154;2022-09-20T08:23:36;102447.69;;;19.73;58.65
58311;BME280;45001;52.218;5.154;2022-09-20T08:26:03;102438.59;;;19.74;58.36
58311;BME280;45001;52.218;5.154;2022-09-20T08:28:29;102436.81;;;19.98;57.72
58311;BME280;45001;52.218;5.154;2022-09-20T08:31:06;102442.84;;;20.16;56.87
58311;BME280;45001;52.218;5.154;2022-09-20T08:33:32;102446.13;;;20.34;55.98
58311;BME280;45001;52.218;5.154;2022-09-20T08:36:00;102451.28;;;20.21;56.74
58311;BME280;45001;52.218;5.154;2022-09-20T08:38:26;102453.28;;;20.27;56.73
58311;BME280;45001;52.218;5.154;2022-09-20T08:41:04;102442.44;;;20.36;56.60
58311;BME280;45001;52.218;5.154;2022-09-20T08:43:35;102448.19;;;20.32;56.72
58311;BME280;45001;52.218;5.154;2022-09-20T08:46:03;102440.22;;;20.31;57.03
58311;BME280;45001;52.218;5.154;2022-09-20T08:48:31;102437.03;;;20.27;57.44
58311;BME280;45001;52.218;5.154;2022-09-20T08:50:58;102448.19;;;20.32;57.33
58311;BME280;45001;52.218;5.154;2022-09-20T08:53:25;102452.78;;;20.32;57.46
58311;BME280;45001;52.218;5.154;2022-09-20T08:55:53;102455.66;;;20.30;57.65
58311;BME280;45001;52.218;5.154;2022-09-20T08:58:21;102457.16;;;20.33;57.65
58311;BME280;45001;52.218;5.154;2022-09-20T09:00:47;102460.19;;;20.38;57.43
58311;BME280;45001;52.218;5.154;2022-09-20T09:03:16;102455.44;;;20.40;57.80
58311;BME280;45001;52.218;5.154;2022-09-20T09:05:50;102461.00;;;20.39;57.83
58311;BME280;45001;52.218;5.154;2022-09-20T09:08:23;102467.97;;;20.41;57.92
58311;BME280;45001;52.218;5.154;2022-09-20T09:10:52;102468.81;;;20.42;57.88
58311;BME280;45001;52.218;5.154;2022-09-20T09:13:36;102468.47;;;20.45;57.78
58311;BME280;45001;52.218;5.154;2022-09-20T09:16:14;102472.66;;;20.47;57.52
58311;BME280;45001;52.218;5.154;2022-09-20T09:18:45;102478.56;;;20.51;57.70
58311;BME280;45001;52.218;5.154;2022-09-20T09:21:22;102488.59;;;20.50;57.64
58311;BME280;45001;52.218;5.154;2022-09-20T09:24:19;102494.50;;;20.54;57.52
58311;BME280;45001;52.218;5.154;2022-09-20T09:26:44;102501.59;;;20.55;57.54
58311;BME280;45001;52.218;5.154;2022-09-20T09:29:20;102507.00;;;20.55;57.40
58311;BME280;45001;52.218;5.154;2022-09-20T09:31:48;102506.00;;;20.56;57.38
58311;BME280;45001;52.218;5.154;2022-09-20T09:34:28;102512.31;;;20.48;57.84
58311;BME280;45001;52.218;5.154;2022-09-20T09:36:55;102507.06;;;20.47;57.85
58311;BME280;45001;52.218;5.154;2022-09-20T09:39:25;102497.59;;;20.43;57.79
58311;BME280;45001;52.218;5.154;2022-09-20T09:41:50;102497.75;;;20.41;57.61
58311;BME280;45001;52.218;5.154;2022-09-20T09:44:20;102491.13;;;20.44;57.55
58311;BME280;45001;52.218;5.154;2022-09-20T09:46:46;102493.13;;;20.50;57.57
58311;BME280;45001;52.218;5.154;2022-09-20T09:49:25;102481.13;;;20.52;57.48
58311;BME280;45001;52.218;5.154;2022-09-20T09:54:19;102478.53;;;20.59;57.45
58311;BME280;45001;52.218;5.154;2022-09-20T10:02:46;102469.53;;;20.67;57.52
58311;BME280;45001;52.218;5.154;2022-09-20T10:07:59;102470.97;;;20.46;58.37
58311;BME280;45001;52.218;5.154;2022-09-20T10:14:13;102462.06;;;20.38;58.42
58311;BME280;45001;52.218;5.154;2022-09-20T10:30:14;102461.34;;;20.44;56.78
58311;BME280;45001;52.218;5.154;2022-09-20T10:35:56;102457.06;;;20.49;55.97
58311;BME280;45001;52.218;5.154;2022-09-20T10:38:57;102453.53;;;20.49;56.03
58311;BME280;45001;52.218;5.154;2022-09-20T10:41:51;102454.38;;;20.49;55.59
58311;BME280;45001;52.218;5.154;2022-09-20T10:44:43;102456.00;;;20.27;55.99
58311;BME280;45001;52.218;5.154;2022-09-20T10:47:16;102466.81;;;20.27;56.00
58311;BME280;45001;52.218;5.154;2022-09-20T10:50:23;102467.47;;;20.38;55.46
58311;BME280;45001;52.218;5.154;2022-09-20T10:53:05;102466.66;;;20.29;55.72
58311;BME280;45001;52.218;5.154;2022-09-20T10:58:38;102461.47;;;20.11;55.93
58311;BME280;45001;52.218;5.154;2022-09-20T11:06:54;102476.44;;;20.38;55.14
58311;BME280;45001;52.218;5.154;2022-09-20T11:09:34;102472.91;;;20.29;55.89
58311;BME280;45001;52.218;5.154;2022-09-20T11:12:48;102474.78;;;20.29;55.71
58311;BME280;45001;52.218;5.154;2022-09-20T11:15:21;102475.28;;;20.32;55.96
58311;BME280;45001;52.218;5.154;2022-09-20T11:18:00;102470.34;;;20.36;55.74
58311;BME280;45001;52.218;5.154;2022-09-20T11:20:36;102467.97;;;20.41;55.68
58311;BME280;45001;52.218;5.154;2022-09-20T11:23:37;102463.56;;;20.40;55.95
58311;BME280;45001;52.218;5.154;2022-09-20T11:26:17;102471.16;;;20.45;56.05
58311;BME280;45001;52.218;5.154;2022-09-20T11:28:50;102476.38;;;20.46;56.15
58311;BME280;45001;52.218;5.154;2022-09-20T11:31:35;102469.97;;;20.47;56.14
58311;BME280;45001;52.218;5.154;2022-09-20T11:34:20;102472.16;;;20.52;56.24
58311;BME280;45001;52.218;5.154;2022-09-20T11:36:58;102476.03;;;20.49;56.24
58311;BME280;45001;52.218;5.154;2022-09-20T11:39:46;102476.88;;;20.50;56.41
58311;BME280;45001;52.218;5.154;2022-09-20T11:42:20;102471.47;;;20.50;56.69
58311;BME280;45001;52.218;5.154;2022-09-20T11:44:47;102474.88;;;20.52;56.47
58311;BME280;45001;52.218;5.154;2022-09-20T11:47:23;102474.50;;;20.55;56.61
58311;BME280;45001;52.218;5.154;2022-09-20T11:56:01;102480.59;;;20.65;56.42
58311;BME280;45001;52.218;5.154;2022-09-20T11:58:29;102471.78;;;20.63;56.44
58311;BME280;45001;52.218;5.154;2022-09-20T12:00:56;102472.63;;;20.64;56.87
58311;BME280;45001;52.218;5.154;2022-09-20T12:03:29;102460.94;;;20.63;56.77
58311;BME280;45001;52.218;5.154;2022-09-20T12:06:01;102468.53;;;20.68;56.89
58311;BME280;45001;52.218;5.154;2022-09-20T12:08:35;102466.16;;;20.65;56.83
58311;BME280;45001;52.218;5.154;2022-09-20T12:11:11;102467.69;;;20.67;57.18
58311;BME280;45001;52.218;5.154;2022-09-20T12:13:42;102465.81;;;20.68;57.01
58311;BME280;45001;52.218;5.154;2022-09-20T12:16:39;102463.53;;;20.80;56.68
58311;BME280;45001;52.218;5.154;2022-09-20T12:19:09;102466.22;;;20.88;56.45
58311;BME280;45001;52.218;5.154;2022-09-20T12:24:25;102468.78;;;20.81;56.75
58311;BME280;45001;52.218;5.154;2022-09-20T12:26:55;102460.66;;;20.81;56.82
58311;BME280;45001;52.218;5.154;2022-09-20T12:31:54;102472.31;;;20.82;56.89
58311;BME280;45001;52.218;5.154;2022-09-20T12:39:23;102475.09;;;20.97;56.61
58311;BME280;45001;52.218;5.154;2022-09-20T12:52:32;102466.06;;;20.81;57.07
58311;BME280;45001;52.218;5.154;2022-09-20T13:03:37;102464.56;;;20.79;57.40
58311;BME280;45001;52.218;5.154;2022-09-20T13:13:55;102471.06;;;20.92;56.84
58311;BME280;45001;52.218;5.154;2022-09-20T13:16:29;102476.41;;;20.86;57.05
58311;BME280;45001;52.218;5.154;2022-09-20T13:19:11;102473.31;;;20.89;56.99
58311;BME280;45001;52.218;5.154;2022-09-20T13:21:40;102470.78;;;20.87;57.07
58311;BME280;45001;52.218;5.154;2022-09-20T13:24:15;102473.97;;;20.91;56.46
58311;BME280;45001;52.218;5.154;2022-09-20T13:26:44;102475.66;;;20.92;56.36
58311;BME280;45001;52.218;5.154;2022-09-20T13:29:36;102471.94;;;20.93;56.37
58311;BME280;45001;52.218;5.154;2022-09-20T13:32:34;102473.97;;;20.91;56.51
58311;BME280;45001;52.218;5.154;2022-09-20T13:37:59;102470.59;;;20.89;55.36
58311;BME280;45001;52.218;5.154;2022-09-20T13:40:36;102471.25;;;20.91;56.08
58311;BME280;45001;52.218;5.154;2022-09-20T13:43:16;102466.63;;;21.00;56.13
58311;BME280;45001;52.218;5.154;2022-09-20T13:45:46;102476.63;;;20.99;56.25
58311;BME280;45001;52.218;5.154;2022-09-20T13:48:15;102479.38;;;20.91;53.92
58311;BME280;45001;52.218;5.154;2022-09-20T13:50:40;102473.84;;;20.84;54.63
58311;BME280;45001;52.218;5.154;2022-09-20T13:53:16;102473.84;;;21.07;54.84
58311;BME280;45001;52.218;5.154;2022-09-20T13:55:43;102478.31;;;21.23;54.59
58311;BME280;45001;52.218;5.154;2022-09-20T13:58:30;102479.09;;;21.32;54.50
58311;BME280;45001;52.218;5.154;2022-09-20T14:01:00;102474.03;;;21.29;54.59
58311;BME280;45001;52.218;5.154;2022-09-20T14:03:28;102466.22;;;21.34;54.50
58311;BME280;45001;52.218;5.154;2022-09-20T14:06:03;102463.97;;;21.38;54.63
58311;BME280;45001;52.218;5.154;2022-09-20T14:08:36;102467.22;;;21.33;54.88
58311;BME280;45001;52.218;5.154;2022-09-20T14:11:06;102468.00;;;21.42;54.68
58311;BME280;45001;52.218;5.154;2022-09-20T14:13:36;102457.66;;;21.45;54.56
58311;BME280;45001;52.218;5.154;2022-09-20T14:16:05;102464.50;;;21.33;54.94
58311;BME280;45001;52.218;5.154;2022-09-20T14:18:31;102462.06;;;21.23;55.49
58311;BME280;45001;52.218;5.154;2022-09-20T14:20:57;102458.84;;;21.20;55.64
58311;BME280;45001;52.218;5.154;2022-09-20T14:23:26;102461.56;;;21.20;55.82
58311;BME280;45001;52.218;5.154;2022-09-20T14:26:21;102459.22;;;21.17;55.90
58311;BME280;45001;52.218;5.154;2022-09-20T14:28:47;102463.44;;;21.19;56.03
58311;BME280;45001;52.218;5.154;2022-09-20T14:31:32;102463.97;;;21.15;56.16
58311;BME280;45001;52.218;5.154;2022-09-20T14:34:01;102476.94;;;21.27;55.79
58311;BME280;45001;52.218;5.154;2022-09-20T14:36:28;102469.84;;;21.41;55.65
58311;BME280;45001;52.218;5.154;2022-09-20T14:38:57;102468.00;;;21.42;55.80
58311;BME280;45001;52.218;5.154;2022-09-20T14:41:44;102469.63;;;21.28;56.00
58311;BME280;45001;52.218;5.154;2022-09-20T14:44:29;102477.50;;;21.23;56.18
58311;BME280;45001;52.218;5.154;2022-09-20T14:46:55;102471.56;;;20.96;53.19
58311;BME280;45001;52.218;5.154;2022-09-20T14:52:20;102472.72;;;21.25;54.71
58311;BME280;45001;52.218;5.154;2022-09-20T14:54:55;102478.69;;;21.20;54.66
58311;BME280;45001;52.218;5.154;2022-09-20T14:57:21;102481.56;;;21.19;54.94
58311;BME280;45001;52.218;5.154;2022-09-20T14:59:53;102471.31;;;20.83;55.67
58311;BME280;45001;52.218;5.154;2022-09-20T15:02:19;102476.19;;;20.56;56.35
58311;BME280;45001;52.218;5.154;2022-09-20T15:04:56;102477.59;;;20.44;56.61
58311;BME280;45001;52.218;5.154;2022-09-20T15:07:24;102473.41;;;20.33;56.64
58311;BME280;45001;52.218;5.154;2022-09-20T15:09:49;102471.25;;;20.20;57.06
58311;BME280;45001;52.218;5.154;2022-09-20T15:12:17;102466.53;;;20.14;57.21
58311;BME280;45001;52.218;5.154;2022-09-20T15:14:43;102473.00;;;20.05;57.51
58311;BME280;45001;52.218;5.154;2022-09-20T15:17:19;102470.97;;;20.07;57.24
58311;BME280;45001;52.218;5.154;2022-09-20T15:19:45;102473.38;;;20.02;56.91
58311;BME280;45001;52.218;5.154;2022-09-20T15:22:11;102476.41;;;19.99;56.94
58311;BME280;45001;52.218;5.154;2022-09-20T15:24:37;102481.50;;;19.93;57.22
58311;BME280;45001;52.218;5.154;2022-09-20T15:27:03;102476.78;;;19.87;57.01
58311;BME280;45001;52.218;5.154;2022-09-20T15:29:28;102477.47;;;19.81;57.01
58311;BME280;45001;52.218;5.154;2022-09-20T15:31:54;102483.88;;;19.80;57.08
58311;BME280;45001;52.218;5.154;2022-09-20T15:34:19;102474.44;;;19.76;57.04
58311;BME280;45001;52.218;5.154;2022-09-20T15:36:47;102471.22;;;19.72;57.14
58311;BME280;45001;52.218;5.154;2022-09-20T15:39:13;102468.81;;;19.69;56.93
58311;BME280;45001;52.218;5.154;2022-09-20T15:41:38;102467.31;;;19.67;57.25
58311;BME280;45001;52.218;5.154;2022-09-20T15:44:05;102466.63;;;19.65;56.98
58311;BME280;45001;52.218;5.154;2022-09-20T15:46:31;102466.28;;;19.68;57.02
58311;BME280;45001;52.218;5.154;2022-09-20T15:49:01;102463.94;;;19.65;57.07
58311;BME280;45001;52.218;5.154;2022-09-20T15:51:28;102469.50;;;19.63;57.01
58311;BME280;45001;52.218;5.154;2022-09-20T15:53:59;102466.28;;;19.60;56.89
58311;BME280;45001;52.218;5.154;2022-09-20T15:56:28;102464.09;;;19.55;56.91
58311;BME280;45001;52.218;5.154;2022-09-20T15:58:55;102457.69;;;19.56;56.90
58311;BME280;45001;52.218;5.154;2022-09-20T16:01:29;102461.75;;;19.52;57.28
58311;BME280;45001;52.218;5.154;2022-09-20T16:03:56;102456.34;;;19.52;56.93
58311;BME280;45001;52.218;5.154;2022-09-20T16:06:22;102458.38;;;19.50;57.06
58311;BME280;45001;52.218;5.154;2022-09-20T16:08:48;102462.91;;;19.49;56.38
58311;BME280;45001;52.218;5.154;2022-09-20T16:11:16;102456.16;;;19.45;56.42
58311;BME280;45001;52.218;5.154;2022-09-20T16:13:44;102468.16;;;19.43;56.72
58311;BME280;45001;52.218;5.154;2022-09-20T16:16:10;102466.63;;;19.40;56.83
58311;BME280;45001;52.218;5.154;2022-09-20T16:18:40;102458.53;;;19.40;56.91
58311;BME280;45001;52.218;5.154;2022-09-20T16:21:23;102465.47;;;19.43;56.78
58311;BME280;45001;52.218;5.154;2022-09-20T16:23:54;102472.38;;;19.45;56.64
58311;BME280;45001;52.218;5.154;2022-09-20T16:26:22;102477.13;;;19.51;56.36
58311;BME280;45001;52.218;5.154;2022-09-20T16:28:48;102472.38;;;19.45;56.60
58311;BME280;45001;52.218;5.154;2022-09-20T16:36:38;102474.94;;;19.30;56.75
58311;BME280;45001;52.218;5.154;2022-09-20T16:39:05;102482.38;;;19.28;56.39
58311;BME280;45001;52.218;5.154;2022-09-20T16:41:31;102478.16;;;19.26;56.68
58311;BME280;45001;52.218;5.154;2022-09-20T16:43:57;102489.28;;;19.23;56.72
58311;BME280;45001;52.218;5.154;2022-09-20T16:46:24;102484.72;;;19.23;56.73
58311;BME280;45001;52.218;5.154;2022-09-20T16:48:54;102493.34;;;19.27;55.89
58311;BME280;45001;52.218;5.154;2022-09-20T16:51:22;102482.88;;;19.24;56.69
58311;BME280;45001;52.218;5.154;2022-09-20T16:53:52;102497.56;;;19.21;56.81
58311;BME280;45001;52.218;5.154;2022-09-20T16:56:26;102498.75;;;19.18;56.81
58311;BME280;45001;52.218;5.154;2022-09-20T16:58:54;102493.66;;;19.15;56.68
58311;BME280;45001;52.218;5.154;2022-09-20T17:01:19;102492.31;;;19.11;56.64
58311;BME280;45001;52.218;5.154;2022-09-20T17:03:45;102492.31;;;19.11;56.46
58311;BME280;45001;52.218;5.154;2022-09-20T17:06:12;102510.56;;;19.09;56.40
58311;BME280;45001;52.218;5.154;2022-09-20T17:08:39;102496.38;;;19.07;56.57
58311;BME280;45001;52.218;5.154;2022-09-20T17:11:06;102503.81;;;19.05;56.38
58311;BME280;45001;52.218;5.154;2022-09-20T17:13:33;102512.09;;;19.04;56.46
58311;BME280;45001;52.218;5.154;2022-09-20T17:16:00;102509.53;;;19.02;56.34
58311;BME280;45001;52.218;5.154;2022-09-20T17:18:25;102499.75;;;19.01;56.33